Time;durP1;ratioP1;P1;durP2;ratioP2;P2;SDS_P1;SDS_P2;PMS_P1;PMS_P2;Temp;Humidity;BMP_temperature;BMP_pressure;BME280_temperature;BME280_humidity;BME280_pressure;Samples;Min_cycle;Max_cycle;Signal;HPM_P1;HPM_P2
2023/10/19 00:02:31;;;;;;;22.30;11.87;;;2.20;99.90;;;;;;4353771;28;658247;-67
2023/10/19 00:05:18;;;;;;;23.17;11.87;;;2.20;99.90;;;;;;4354709;28;657449;-67
2023/10/19 00:08:15;;;;;;;23.27;11.30;;;2.10;99.90;;;;;;4372331;28;658545;-68
2023/10/19 00:11:02;;;;;;;27.80;11.80;;;2.00;99.90;;;;;;4366680;28;657660;-67
2023/10/19 00:13:50;;;;;;;24.00;12.87;;;1.90;99.90;;;;;;4370297;28;658594;-68
2023/10/19 00:16:37;;;;;;;29.03;11.97;;;1.90;99.90;;;;;;4346992;28;657765;-67
2023/10/19 00:19:27;;;;;;;25.20;13.50;;;1.90;99.90;;;;;;4375574;28;658041;-67
2023/10/19 00:22:20;;;;;;;25.87;12.93;;;2.00;99.90;;;;;;4344602;28;658033;-68
2023/10/19 00:25:13;;;;;;;24.83;12.87;;;2.00;99.90;;;;;;4326849;28;658020;-68
2023/10/19 00:28:03;;;;;;;28.93;13.27;;;2.00;99.90;;;;;;4354536;28;658766;-67
2023/10/19 00:30:52;;;;;;;26.73;14.47;;;1.90;99.90;;;;;;4353154;28;658423;-67
2023/10/19 00:33:40;;;;;;;28.00;14.73;;;1.80;99.90;;;;;;4339754;28;658223;-68
2023/10/19 00:36:30;;;;;;;30.50;15.88;;;1.90;99.90;;;;;;4345878;28;657982;-67
2023/10/19 00:39:20;;;;;;;33.13;15.73;;;1.90;99.90;;;;;;4351314;28;657532;-68
2023/10/19 00:42:08;;;;;;;32.93;15.63;;;1.90;99.90;;;;;;4357009;28;657624;-67
2023/10/19 00:45:01;;;;;;;29.67;15.73;;;2.00;99.90;;;;;;4373322;28;658989;-68
2023/10/19 00:47:49;;;;;;;42.53;20.37;;;1.90;99.90;;;;;;4327456;28;659285;-67
2023/10/19 00:50:36;;;;;;;37.87;19.07;;;1.90;99.90;;;;;;4370791;28;657965;-67
2023/10/19 00:53:26;;;;;;;40.97;18.92;;;1.80;99.90;;;;;;4354965;28;657748;-68
2023/10/19 00:56:16;;;;;;;40.60;19.53;;;1.80;99.90;;;;;;4351489;28;657508;-68
2023/10/19 00:59:12;;;;;;;37.37;18.73;;;1.80;99.90;;;;;;4353118;28;658428;-68
2023/10/19 01:02:16;;;;;;;40.40;18.70;;;1.70;99.90;;;;;;4329949;28;657785;-67
2023/10/19 01:05:05;;;;;;;35.17;17.73;;;1.70;99.90;;;;;;4332178;28;658186;-67
2023/10/19 01:07:57;;;;;;;42.50;19.47;;;1.80;99.90;;;;;;4368871;28;659372;-68
2023/10/19 01:10:46;;;;;;;39.03;20.03;;;1.70;99.90;;;;;;4354101;28;658008;-67
2023/10/19 01:13:34;;;;;;;41.63;22.43;;;1.60;99.90;;;;;;4356731;28;657632;-67
2023/10/19 01:16:22;;;;;;;46.47;23.42;;;1.50;99.90;;;;;;4374817;28;658150;-68
2023/10/19 01:19:09;;;;;;;46.00;23.37;;;1.50;99.90;;;;;;4353833;28;657984;-68
2023/10/19 01:22:04;;;;;;;44.17;22.33;;;1.60;99.90;;;;;;4371570;28;657376;-67
2023/10/19 01:24:55;;;;;;;44.30;20.73;;;1.60;99.90;;;;;;4352571;28;658182;-68
2023/10/19 01:27:43;;;;;;;44.17;22.43;;;1.50;99.90;;;;;;4337616;28;658731;-67
2023/10/19 01:30:30;;;;;;;42.87;20.10;;;1.50;99.90;;;;;;4377414;28;658236;-67
2023/10/19 01:33:18;;;;;;;35.27;17.37;;;1.60;99.90;;;;;;4356797;28;657602;-67
2023/10/19 01:39:10;;;;;;;38.43;17.43;;;1.80;99.90;;;;;;4347822;28;657926;-68
2023/10/19 01:41:59;;;;;;;33.07;15.80;;;1.70;99.90;;;;;;4345618;28;657890;-67
2023/10/19 01:44:45;;;;;;;34.67;17.60;;;1.80;99.90;;;;;;4370694;28;657473;-67
2023/10/19 01:47:32;;;;;;;33.77;17.27;;;1.80;99.90;;;;;;4353933;28;658242;-67
2023/10/19 01:50:19;;;;;;;35.07;16.57;;;1.70;99.90;;;;;;4378171;28;657795;-67
2023/10/19 01:53:13;;;;;;;33.77;15.73;;;1.60;99.90;;;;;;4374766;28;657169;-68
2023/10/19 01:55:59;;;;;;;36.55;15.27;;;1.60;99.90;;;;;;4328176;28;658170;-68
2023/10/19 01:58:47;;;;;;;36.90;16.60;;;1.50;99.90;;;;;;4376768;28;657456;-67
2023/10/19 02:01:36;;;;;;;30.83;15.60;;;1.60;99.90;;;;;;4350960;28;657824;-67
2023/10/19 02:04:25;;;;;;;32.83;16.13;;;1.50;99.90;;;;;;4351582;28;657397;-68
2023/10/19 02:07:17;;;;;;;38.87;15.90;;;1.40;99.90;;;;;;4361308;28;657422;-67
2023/10/19 02:10:10;;;;;;;34.83;16.17;;;1.50;99.90;;;;;;4356300;28;657947;-68
2023/10/19 02:12:57;;;;;;;27.93;14.23;;;1.50;99.90;;;;;;4340827;28;657694;-68
2023/10/19 02:15:46;;;;;;;34.15;15.30;;;1.60;99.90;;;;;;4381603;28;657783;-67
2023/10/19 02:18:34;;;;;;;30.90;15.70;;;1.70;99.90;;;;;;4358646;28;657585;-67
2023/10/19 02:21:24;;;;;;;32.97;15.10;;;1.70;99.90;;;;;;4373680;28;657749;-67
2023/10/19 02:24:14;;;;;;;35.50;16.40;;;1.60;99.90;;;;;;4350633;28;657344;-68
2023/10/19 02:27:01;;;;;;;41.47;17.70;;;1.50;99.90;;;;;;4358479;28;657410;-68
2023/10/19 02:29:48;;;;;;;35.70;17.67;;;1.50;99.90;;;;;;4355017;28;657448;-67
2023/10/19 02:32:36;;;;;;;36.03;16.37;;;1.40;99.90;;;;;;4374219;28;659060;-68
2023/10/19 02:35:23;;;;;;;38.10;17.15;;;1.50;99.90;;;;;;4357164;28;658006;-67
2023/10/19 02:38:10;;;;;;;31.10;15.83;;;1.50;99.90;;;;;;4377973;28;658455;-68
2023/10/19 02:40:57;;;;;;;35.07;14.97;;;1.40;99.90;;;;;;4350402;28;657842;-68
2023/10/19 02:43:47;;;;;;;30.67;16.00;;;1.30;99.90;;;;;;4374615;28;657671;-68
2023/10/19 02:46:33;;;;;;;36.53;16.57;;;1.40;99.90;;;;;;4349679;28;658058;-68
2023/10/19 02:49:23;;;;;;;36.00;16.57;;;1.30;99.90;;;;;;4375854;28;658360;-68
2023/10/19 02:52:12;;;;;;;34.40;15.57;;;1.20;99.90;;;;;;4350138;28;658608;-68
2023/10/19 02:55:00;;;;;;;38.40;18.30;;;1.20;99.90;;;;;;4350612;28;658833;-68
2023/10/19 02:57:47;;;;;;;45.23;19.03;;;1.20;99.90;;;;;;4387291;28;656958;-68
2023/10/19 03:00:36;;;;;;;33.97;17.13;;;1.30;99.90;;;;;;4352561;28;659753;-68
2023/10/19 03:03:23;;;;;;;37.73;17.40;;;1.30;99.90;;;;;;4348349;28;657566;-68
2023/10/19 03:06:11;;;;;;;36.90;17.80;;;1.20;99.90;;;;;;4371626;28;658722;-68
2023/10/19 03:09:00;;;;;;;33.93;17.70;;;1.30;99.90;;;;;;4363244;28;658134;-68
2023/10/19 03:11:47;;;;;;;38.83;17.47;;;1.30;99.90;;;;;;4357367;28;657948;-68
2023/10/19 03:14:34;;;;;;;37.03;18.23;;;1.30;99.90;;;;;;4380273;28;657247;-68
2023/10/19 03:17:20;;;;;;;39.23;18.47;;;1.40;99.90;;;;;;4371061;28;657493;-68
2023/10/19 03:20:10;;;;;;;37.93;18.23;;;1.60;99.90;;;;;;4354882;28;657588;-68
2023/10/19 03:23:01;;;;;;;40.33;17.57;;;1.70;99.90;;;;;;4364023;28;658050;-68
2023/10/19 03:29:02;;;;;;;35.13;16.92;;;2.00;99.90;;;;;;4354157;28;657599;-68
2023/10/19 03:31:49;;;;;;;40.90;17.63;;;2.10;99.90;;;;;;4364463;28;658436;-68
2023/10/19 03:34:37;;;;;;;37.97;17.90;;;2.10;99.90;;;;;;4377830;28;657192;-68
2023/10/19 03:37:25;;;;;;;37.93;16.50;;;2.10;99.90;;;;;;4358697;28;657618;-68
2023/10/19 03:40:16;;;;;;;42.50;16.20;;;2.30;99.90;;;;;;4366330;28;657850;-68
2023/10/19 03:43:14;;;;;;;42.43;17.47;;;2.60;99.90;;;;;;4358168;28;657958;-68
2023/10/19 03:46:06;;;;;;;34.77;16.83;;;2.90;99.90;;;;;;4356416;28;658009;-67
2023/10/19 03:48:58;;;;;;;40.30;18.17;;;3.00;99.90;;;;;;4332644;28;658389;-68
2023/10/19 03:51:58;;;;;;;40.93;18.17;;;3.20;99.90;;;;;;4351289;28;659042;-67
2023/10/19 03:54:46;;;;;;;40.57;18.97;;;3.20;99.90;;;;;;4329541;28;658228;-68
2023/10/19 03:57:35;;;;;;;42.40;18.03;;;3.30;99.90;;;;;;4358840;28;658286;-68
2023/10/19 04:00:24;;;;;;;41.13;19.13;;;3.40;99.90;;;;;;4359849;28;658420;-68
2023/10/19 04:03:12;;;;;;;37.43;17.90;;;3.50;99.90;;;;;;4371682;28;657755;-68
2023/10/19 04:06:03;;;;;;;40.95;18.52;;;3.60;99.90;;;;;;4356285;28;658691;-68
2023/10/19 04:08:52;;;;;;;46.60;18.83;;;3.60;99.90;;;;;;4353809;28;658543;-68
2023/10/19 04:11:48;;;;;;;41.30;17.07;;;3.70;99.90;;;;;;4356493;28;658078;-67
2023/10/19 04:14:38;;;;;;;42.20;18.57;;;3.70;99.90;;;;;;4351499;28;658090;-68
2023/10/19 04:17:25;;;;;;;36.70;16.17;;;3.80;99.90;;;;;;4350072;28;658238;-68
2023/10/19 04:20:29;;;;;;;38.33;16.80;;;3.90;99.90;;;;;;4356399;28;657828;-68
2023/10/19 04:23:16;;;;;;;34.47;16.53;;;4.00;99.90;;;;;;4347947;28;657998;-68
2023/10/19 04:26:10;;;;;;;38.17;16.43;;;4.10;99.90;;;;;;4354424;28;658133;-68
2023/10/19 04:28:57;;;;;;;35.90;16.37;;;4.10;99.90;;;;;;4332878;28;658579;-68
2023/10/19 04:31:50;;;;;;;36.37;17.27;;;4.20;99.90;;;;;;4376359;28;658756;-68
2023/10/19 04:34:38;;;;;;;35.07;16.53;;;4.20;99.90;;;;;;4344183;28;657747;-68
2023/10/19 04:37:25;;;;;;;37.30;16.93;;;4.20;99.90;;;;;;4377990;28;658022;-67
2023/10/19 04:40:13;;;;;;;31.83;16.10;;;4.20;99.90;;;;;;4352272;28;657611;-68
2023/10/19 04:43:02;;;;;;;36.53;16.95;;;4.20;99.90;;;;;;4375877;28;658680;-68
2023/10/19 04:45:49;;;;;;;34.50;16.80;;;4.30;99.90;;;;;;4357053;28;658569;-68
2023/10/19 04:48:39;;;;;;;34.73;16.73;;;4.30;99.90;;;;;;4373507;28;659127;-68
2023/10/19 04:51:26;;;;;;;38.25;18.02;;;4.40;99.90;;;;;;4348903;28;658119;-68
2023/10/19 04:54:14;;;;;;;50.67;21.87;;;4.40;99.90;;;;;;4353850;28;658359;-68
2023/10/19 04:57:01;;;;;;;50.07;19.27;;;4.40;99.90;;;;;;4374156;28;659292;-68
2023/10/19 04:59:48;;;;;;;37.07;16.97;;;4.50;99.90;;;;;;4352356;28;658173;-68
2023/10/19 05:02:35;;;;;;;82.80;24.33;;;4.50;99.90;;;;;;4375510;28;658480;-68
2023/10/19 05:05:24;;;;;;;127.63;31.03;;;4.60;99.90;;;;;;4354020;28;658146;-68
2023/10/19 05:08:11;;;;;;;108.23;28.37;;;4.70;99.90;;;;;;4375711;28;658719;-68
2023/10/19 05:10:59;;;;;;;338.08;55.90;;;4.60;99.90;;;;;;4356929;28;658462;-68
2023/10/19 05:13:46;;;;;;;71.17;21.00;;;4.60;99.90;;;;;;4368126;28;659090;-67
2023/10/19 05:16:33;;;;;;;36.20;15.87;;;4.60;99.90;;;;;;4349077;28;657468;-68
2023/10/19 05:19:21;;;;;;;36.97;15.63;;;4.60;99.90;;;;;;4375719;28;658388;-68
2023/10/19 05:22:10;;;;;;;35.17;15.77;;;4.70;99.90;;;;;;4351372;28;657974;-68
2023/10/19 05:24:58;;;;;;;32.97;14.07;;;4.70;99.90;;;;;;4372083;28;657821;-68
2023/10/19 05:27:45;;;;;;;37.17;14.73;;;4.80;99.90;;;;;;4373720;28;658542;-68
2023/10/19 05:30:33;;;;;;;31.40;14.37;;;4.80;99.90;;;;;;4356103;28;659583;-68
2023/10/19 05:33:23;;;;;;;38.10;15.57;;;4.90;99.90;;;;;;4371455;28;658465;-67
2023/10/19 05:36:10;;;;;;;45.07;16.70;;;4.90;99.90;;;;;;4352787;28;658268;-68
2023/10/19 05:38:59;;;;;;;39.43;15.07;;;4.90;99.90;;;;;;4363402;28;657429;-68
2023/10/19 05:41:46;;;;;;;43.10;15.90;;;4.90;99.90;;;;;;4379878;28;658519;-67
2023/10/19 05:44:34;;;;;;;41.93;14.83;;;4.90;99.90;;;;;;4351464;28;658031;-68
2023/10/19 05:47:21;;;;;;;41.70;15.00;;;5.00;99.90;;;;;;4381485;28;657673;-68
2023/10/19 05:50:09;;;;;;;34.27;13.53;;;5.00;99.90;;;;;;4354776;28;657971;-68
2023/10/19 05:52:56;;;;;;;27.50;13.03;;;5.00;99.90;;;;;;4390291;28;658004;-68
2023/10/19 05:55:45;;;;;;;24.57;12.90;;;5.00;99.90;;;;;;4354820;28;657817;-68
2023/10/19 05:58:32;;;;;;;32.35;14.30;;;4.90;99.90;;;;;;4355919;28;658766;-68
2023/10/19 06:01:20;;;;;;;44.73;17.87;;;5.00;99.90;;;;;;4380781;28;658060;-68
2023/10/19 06:04:08;;;;;;;41.07;16.53;;;5.10;99.90;;;;;;4361509;28;657942;-68
2023/10/19 06:06:55;;;;;;;31.10;13.93;;;5.20;99.90;;;;;;4382124;28;658452;-68
2023/10/19 06:09:43;;;;;;;31.80;13.83;;;5.30;99.90;;;;;;4352870;28;658500;-68
2023/10/19 06:12:32;;;;;;;43.60;16.13;;;5.30;99.90;;;;;;4376919;28;658205;-68
2023/10/19 06:15:20;;;;;;;45.37;15.57;;;5.40;99.90;;;;;;4357918;28;658456;-68
2023/10/19 06:18:08;;;;;;;30.03;13.77;;;5.50;99.90;;;;;;4359811;28;658483;-68
2023/10/19 06:20:55;;;;;;;30.60;13.17;;;5.60;99.90;;;;;;4376800;28;658721;-68
2023/10/19 06:23:42;;;;;;;27.50;12.30;;;5.70;99.90;;;;;;4370012;28;657815;-68
2023/10/19 06:26:30;;;;;;;26.37;12.63;;;5.70;99.90;;;;;;4374738;28;658597;-68
2023/10/19 06:29:18;;;;;;;28.53;13.03;;;5.70;99.90;;;;;;4376614;28;657341;-68
2023/10/19 06:32:06;;;;;;;22.07;11.30;;;5.70;99.90;;;;;;4355345;28;657574;-68
2023/10/19 06:34:53;;;;;;;25.23;11.57;;;5.80;99.90;;;;;;4358265;28;657810;-68
2023/10/19 06:37:41;;;;;;;25.67;11.33;;;5.90;99.90;;;;;;4376301;28;657728;-68
2023/10/19 06:40:28;;;;;;;25.30;11.47;;;5.90;99.90;;;;;;4359736;28;657531;-68
2023/10/19 06:43:15;;;;;;;30.33;12.07;;;6.00;99.90;;;;;;4379422;28;657974;-68
2023/10/19 06:46:05;;;;;;;21.02;10.45;;;6.10;99.90;;;;;;4354337;28;658084;-68
2023/10/19 06:48:55;;;;;;;23.57;11.00;;;6.20;99.90;;;;;;4355168;28;658190;-68
2023/10/19 06:51:43;;;;;;;21.40;10.03;;;6.20;99.90;;;;;;4355517;28;657701;-68
2023/10/19 06:54:30;;;;;;;28.50;11.57;;;6.40;99.90;;;;;;4381956;28;659283;-68
2023/10/19 06:57:17;;;;;;;26.83;12.13;;;6.40;99.90;;;;;;4358662;28;658154;-68
2023/10/19 07:00:14;;;;;;;23.97;12.07;;;6.50;99.90;;;;;;4376915;28;657340;-68
2023/10/19 07:03:03;;;;;;;21.70;10.00;;;6.60;99.90;;;;;;4349389;28;658500;-68
2023/10/19 07:05:53;;;;;;;23.27;10.83;;;6.60;99.90;;;;;;4351524;28;658359;-68
2023/10/19 07:08:40;;;;;;;21.47;10.17;;;6.60;99.90;;;;;;4346504;28;659234;-68
2023/10/19 07:11:28;;;;;;;21.33;10.70;;;6.60;99.90;;;;;;4347546;28;657459;-68
2023/10/19 07:14:15;;;;;;;23.90;10.70;;;6.70;99.90;;;;;;4371304;28;658299;-68
2023/10/19 07:17:03;;;;;;;23.83;9.82;;;6.70;99.90;;;;;;4358320;28;657492;-68
2023/10/19 07:19:51;;;;;;;24.43;10.10;;;6.80;99.90;;;;;;4378638;28;657455;-68
2023/10/19 07:22:39;;;;;;;26.47;10.70;;;6.90;99.90;;;;;;4351242;28;657906;-68
2023/10/19 07:25:26;;;;;;;23.80;11.93;;;6.90;99.90;;;;;;4372374;28;657463;-68
2023/10/19 07:28:13;;;;;;;29.10;11.77;;;7.00;99.90;;;;;;4356553;28;657880;-68
2023/10/19 07:31:01;;;;;;;25.67;12.03;;;7.00;99.90;;;;;;4372487;28;659843;-68
2023/10/19 07:33:50;;;;;;;30.60;12.00;;;6.90;99.90;;;;;;4355921;28;657648;-68
2023/10/19 07:36:39;;;;;;;22.07;11.00;;;7.00;99.90;;;;;;4370750;28;657963;-68
2023/10/19 07:39:29;;;;;;;18.40;9.77;;;7.10;99.90;;;;;;4373549;28;657163;-68
2023/10/19 07:42:17;;;;;;;23.10;9.67;;;7.20;99.90;;;;;;4353530;28;657104;-68
2023/10/19 07:45:07;;;;;;;19.03;9.70;;;7.20;99.90;;;;;;4357847;28;656326;-68
2023/10/19 07:47:54;;;;;;;19.17;9.33;;;7.30;99.90;;;;;;4359194;28;656904;-68
2023/10/19 07:50:42;;;;;;;25.63;10.37;;;7.40;99.90;;;;;;4377996;28;656572;-68
2023/10/19 07:53:31;;;;;;;22.80;10.30;;;7.60;99.90;;;;;;4350761;28;658347;-68
2023/10/19 07:56:19;;;;;;;21.73;9.60;;;7.80;99.90;;;;;;4359185;28;657383;-68
2023/10/19 07:59:06;;;;;;;16.37;8.37;;;8.10;99.90;;;;;;4372810;28;657354;-68
2023/10/19 08:01:54;;;;;;;17.93;9.27;;;8.20;99.90;;;;;;4355042;28;656619;-68
2023/10/19 08:04:41;;;;;;;19.00;9.73;;;8.20;99.90;;;;;;4372403;28;657406;-68
2023/10/19 08:07:29;;;;;;;17.83;9.87;;;8.20;99.90;;;;;;4357775;28;656867;-68
2023/10/19 08:10:18;;;;;;;23.30;9.07;;;8.20;99.90;;;;;;4379696;28;657366;-68
2023/10/19 08:13:05;;;;;;;18.40;8.85;;;8.40;99.90;;;;;;4350668;28;656867;-68
2023/10/19 08:15:53;;;;;;;15.30;8.83;;;8.70;99.90;;;;;;4355946;28;657045;-68
2023/10/19 08:18:40;;;;;;;23.00;8.80;;;8.90;99.90;;;;;;4369578;28;656882;-68
2023/10/19 08:21:28;;;;;;;18.33;9.43;;;9.00;99.90;;;;;;4365676;28;656600;-68
2023/10/19 08:24:17;;;;;;;24.10;9.37;;;9.10;99.90;;;;;;4374278;28;657231;-68
2023/10/19 08:27:06;;;;;;;16.77;8.82;;;9.20;99.90;;;;;;4351989;28;657332;-68
2023/10/19 08:29:55;;;;;;;15.73;8.33;;;9.30;99.90;;;;;;4357223;28;656399;-68
2023/10/19 08:32:42;;;;;;;18.37;7.97;;;9.30;99.90;;;;;;4356991;28;656341;-68
2023/10/19 08:35:30;;;;;;;18.53;8.37;;;9.40;99.90;;;;;;4378747;28;656676;-68
2023/10/19 08:38:18;;;;;;;19.50;8.57;;;9.40;99.90;;;;;;4353940;28;656841;-68
2023/10/19 08:41:05;;;;;;;20.40;9.00;;;9.60;99.90;;;;;;4373545;28;657136;-68
2023/10/19 08:43:55;;;;;;;21.17;9.40;;;9.60;99.90;;;;;;4370003;28;657474;-68
2023/10/19 08:46:44;;;;;;;17.77;8.90;;;9.70;99.90;;;;;;4355070;28;656816;-68
2023/10/19 08:49:31;;;;;;;18.63;10.17;;;9.60;99.90;;;;;;4378043;28;657377;-68
2023/10/19 08:52:18;;;;;;;24.17;10.17;;;9.60;99.90;;;;;;4356537;28;657573;-68
2023/10/19 08:55:06;;;;;;;16.37;8.50;;;9.60;99.90;;;;;;4374640;28;658481;-68
2023/10/19 08:57:54;;;;;;;18.17;8.63;;;9.60;99.90;;;;;;4353794;28;656867;-68
2023/10/19 09:00:48;;;;;;;16.67;8.87;;;9.50;99.90;;;;;;4371640;28;656939;-68
2023/10/19 09:03:35;;;;;;;17.80;8.93;;;9.50;99.90;;;;;;4341765;28;656905;-68
2023/10/19 09:06:23;;;;;;;17.13;8.73;;;9.50;99.90;;;;;;4357754;28;656561;-68
2023/10/19 09:09:16;;;;;;;19.70;8.43;;;9.50;99.90;;;;;;4379283;28;659340;-68
2023/10/19 09:12:04;;;;;;;16.70;9.13;;;9.50;99.90;;;;;;4358792;28;656386;-68
2023/10/19 09:14:51;;;;;;;20.37;10.03;;;9.50;99.90;;;;;;4374595;28;657526;-68
2023/10/19 09:17:39;;;;;;;17.63;8.73;;;9.50;99.90;;;;;;4357912;28;657684;-68
2023/10/19 09:20:28;;;;;;;19.10;9.07;;;9.60;99.90;;;;;;4387820;28;656480;-68
2023/10/19 09:23:15;;;;;;;17.73;9.00;;;9.60;99.90;;;;;;4351915;28;657405;-68
2023/10/19 09:26:03;;;;;;;20.63;9.50;;;9.50;99.90;;;;;;4365111;28;656460;-68
2023/10/19 09:28:51;;;;;;;15.23;8.37;;;9.50;99.90;;;;;;4376576;28;657545;-68
2023/10/19 09:31:41;;;;;;;15.30;8.93;;;9.60;99.90;;;;;;4359534;28;657188;-68
2023/10/19 09:34:31;;;;;;;21.80;8.93;;;9.60;99.90;;;;;;4350964;28;656545;-68
2023/10/19 09:37:19;;;;;;;15.47;8.77;;;9.60;99.90;;;;;;4352445;28;656866;-68
2023/10/19 09:40:11;;;;;;;20.43;9.43;;;9.50;99.90;;;;;;4375111;28;657176;-68
2023/10/19 09:42:59;;;;;;;16.37;9.07;;;9.40;99.90;;;;;;4330633;28;657402;-68
2023/10/19 09:45:49;;;;;;;18.47;8.43;;;9.50;99.90;;;;;;4378073;28;657054;-68
2023/10/19 09:48:41;;;;;;;20.10;9.47;;;9.60;99.90;;;;;;4353836;28;656770;-68
2023/10/19 09:51:30;;;;;;;17.88;8.70;;;9.80;99.90;;;;;;4330147;28;656866;-68
2023/10/19 09:54:21;;;;;;;16.07;9.00;;;9.90;99.90;;;;;;4368931;28;656976;-68
2023/10/19 09:57:16;;;;;;;20.60;10.17;;;9.90;99.90;;;;;;4357130;28;656659;-68
2023/10/19 10:00:11;;;;;;;19.17;9.57;;;9.80;99.90;;;;;;4325294;28;659997;-68
2023/10/19 10:02:58;;;;;;;19.70;9.63;;;9.80;99.90;;;;;;4366091;28;656675;-68
2023/10/19 10:05:47;;;;;;;20.53;10.23;;;9.80;99.90;;;;;;4375746;28;657439;-68
2023/10/19 10:08:37;;;;;;;17.67;8.73;;;9.50;99.90;;;;;;4349331;28;659067;-68
2023/10/19 10:11:26;;;;;;;17.67;9.87;;;9.60;99.90;;;;;;4354688;28;657549;-68
2023/10/19 10:14:22;;;;;;;21.80;9.40;;;9.80;99.90;;;;;;4355817;28;656995;-68
2023/10/19 10:17:12;;;;;;;22.30;10.57;;;9.80;99.90;;;;;;4330107;28;657028;-68
2023/10/19 10:20:30;;;;;;;17.33;9.03;;;9.90;99.90;;;;;;4355364;28;658884;-68
2023/10/19 10:23:24;;;;;;;16.38;9.25;;;10.10;99.90;;;;;;4369385;28;656824;-68
2023/10/19 10:26:14;;;;;;;16.50;9.20;;;10.20;99.90;;;;;;4349028;28;657960;-68
2023/10/19 10:29:14;;;;;;;17.10;9.57;;;10.20;99.90;;;;;;4355313;28;658088;-68
2023/10/19 10:32:01;;;;;;;18.73;9.60;;;10.30;99.90;;;;;;4351861;28;657163;-68
2023/10/19 10:34:49;;;;;;;23.63;12.43;;;10.30;99.90;;;;;;4359171;28;658518;-68
2023/10/19 10:37:38;;;;;;;22.33;11.20;;;10.30;99.90;;;;;;4383871;28;659085;-68
2023/10/19 10:40:25;;;;;;;16.57;10.43;;;10.20;99.90;;;;;;4352528;28;660035;-68
2023/10/19 10:43:15;;;;;;;22.13;10.47;;;10.30;99.90;;;;;;4367154;28;660920;-68
2023/10/19 10:46:07;;;;;;;28.53;14.10;;;10.30;99.90;;;;;;4370076;28;658660;-68
2023/10/19 10:48:54;;;;;;;25.10;11.87;;;10.40;99.90;;;;;;4352721;28;660046;-68
2023/10/19 10:51:41;;;;;;;25.30;11.07;;;10.40;99.90;;;;;;4374663;28;658473;-68
2023/10/19 10:54:28;;;;;;;22.90;10.83;;;10.50;99.90;;;;;;4357133;28;658427;-68
2023/10/19 10:57:16;;;;;;;21.67;11.38;;;10.60;99.90;;;;;;4373992;28;659189;-68
2023/10/19 11:00:07;;;;;;;21.73;11.97;;;10.70;99.90;;;;;;4358520;28;659594;-68
2023/10/19 11:03:04;;;;;;;25.43;11.83;;;10.70;99.90;;;;;;4351458;28;658988;-68
2023/10/19 11:05:52;;;;;;;19.10;10.93;;;10.70;99.90;;;;;;4345591;28;658883;-68
2023/10/19 11:08:39;;;;;;;17.97;10.50;;;10.70;99.90;;;;;;4346961;28;658834;-68
2023/10/19 11:11:26;;;;;;;19.57;10.80;;;10.70;99.90;;;;;;4367353;28;658943;-68
2023/10/19 11:14:14;;;;;;;20.87;11.67;;;10.70;99.90;;;;;;4350992;28;659182;-68
2023/10/19 11:17:15;;;;;;;21.43;11.53;;;10.80;99.90;;;;;;4364243;28;659312;-68
2023/10/19 11:20:04;;;;;;;27.93;11.73;;;10.80;99.90;;;;;;4347291;28;658561;-68
2023/10/19 11:22:52;;;;;;;22.07;11.20;;;10.90;99.90;;;;;;4349854;28;659486;-68
2023/10/19 11:25:39;;;;;;;23.20;10.90;;;10.90;99.90;;;;;;4350054;28;661465;-68
2023/10/19 11:28:28;;;;;;;28.63;12.07;;;10.90;99.90;;;;;;4372233;28;659175;-68
2023/10/19 11:31:17;;;;;;;20.80;11.63;;;10.80;99.90;;;;;;4353988;28;659844;-68
2023/10/19 11:34:08;;;;;;;26.23;12.33;;;10.90;99.90;;;;;;4352033;28;660537;-68
2023/10/19 11:36:59;;;;;;;18.03;10.87;;;11.00;99.90;;;;;;4347633;28;660279;-68
2023/10/19 11:39:46;;;;;;;20.63;11.17;;;11.00;99.90;;;;;;4352100;28;659646;-68
2023/10/19 11:42:33;;;;;;;19.43;11.23;;;11.10;99.90;;;;;;4359349;28;658713;-68
2023/10/19 11:45:21;;;;;;;18.70;10.87;;;11.10;99.90;;;;;;4376836;28;659615;-68
2023/10/19 11:48:08;;;;;;;25.30;11.50;;;11.10;99.90;;;;;;4358286;28;658470;-68
2023/10/19 11:50:57;;;;;;;21.00;11.30;;;11.20;99.90;;;;;;4371593;28;658492;-68
2023/10/19 11:53:45;;;;;;;21.83;10.80;;;11.30;99.90;;;;;;4350882;28;659303;-68
2023/10/19 11:56:32;;;;;;;20.40;11.60;;;11.20;99.90;;;;;;4361102;28;659103;-68
2023/10/19 11:59:20;;;;;;;23.37;11.33;;;11.10;99.90;;;;;;4375714;28;659254;-68
2023/10/19 12:02:09;;;;;;;23.23;11.83;;;11.00;99.90;;;;;;4364875;28;658640;-68
2023/10/19 12:04:56;;;;;;;19.47;11.47;;;10.90;99.90;;;;;;4374954;28;658394;-68
2023/10/19 12:07:45;;;;;;;23.37;12.10;;;10.80;99.90;;;;;;4349254;28;659181;-68
2023/10/19 12:10:35;;;;;;;22.33;11.37;;;10.70;99.90;;;;;;4353201;28;658722;-68
2023/10/19 12:13:24;;;;;;;22.33;11.30;;;10.70;99.90;;;;;;4370069;28;658520;-68
2023/10/19 12:16:12;;;;;;;23.30;12.57;;;10.80;99.90;;;;;;4373950;28;659766;-68
2023/10/19 12:18:59;;;;;;;20.80;11.07;;;10.80;99.90;;;;;;4353892;28;659507;-68
2023/10/19 12:21:46;;;;;;;26.87;14.50;;;10.90;99.90;;;;;;4372183;28;659859;-68
2023/10/19 12:24:35;;;;;;;29.53;15.83;;;10.90;99.90;;;;;;4355288;28;658931;-68
2023/10/19 12:27:24;;;;;;;30.07;16.37;;;10.80;99.90;;;;;;4349612;28;658569;-68
2023/10/19 12:30:20;;;;;;;23.43;14.57;;;10.80;99.90;;;;;;4373723;28;660468;-68
2023/10/19 12:33:11;;;;;;;27.63;14.30;;;10.90;99.90;;;;;;4345805;28;658720;-68
2023/10/19 12:35:59;;;;;;;23.53;13.83;;;10.90;99.90;;;;;;4345150;28;658993;-68
2023/10/19 12:38:47;;;;;;;24.50;13.07;;;10.90;99.90;;;;;;4360534;28;658355;-68
2023/10/19 12:41:35;;;;;;;21.83;12.70;;;11.10;99.90;;;;;;4334778;28;660021;-68
2023/10/19 12:44:23;;;;;;;21.63;11.77;;;11.10;99.90;;;;;;4332734;28;658635;-68
2023/10/19 12:47:12;;;;;;;20.43;11.47;;;11.10;99.90;;;;;;4360219;28;659723;-69
2023/10/19 12:50:00;;;;;;;21.53;11.77;;;11.00;99.90;;;;;;4340798;28;659373;-69
2023/10/19 12:52:48;;;;;;;49.67;23.60;;;11.00;99.90;;;;;;4345666;28;659168;-68
2023/10/19 12:55:37;;;;;;;21.73;12.43;;;11.00;99.90;;;;;;4360579;28;659603;-69
2023/10/19 12:58:27;;;;;;;25.53;12.33;;;11.00;99.90;;;;;;4335351;28;659136;-68
2023/10/19 13:01:17;;;;;;;30.77;14.57;;;11.00;99.90;;;;;;4337671;28;659485;-68
2023/10/19 13:04:16;;;;;;;68.97;29.40;;;11.10;99.90;;;;;;4331120;28;659773;-68
2023/10/19 13:07:03;;;;;;;60.20;27.33;;;11.20;99.90;;;;;;4339296;28;659619;-68
2023/10/19 13:09:50;;;;;;;76.70;32.93;;;11.30;99.90;;;;;;4360643;28;659184;-69
2023/10/19 13:12:38;;;;;;;58.43;25.67;;;11.40;99.90;;;;;;4336888;28;659312;-68
2023/10/19 13:15:30;;;;;;;46.70;22.37;;;11.30;99.90;;;;;;4353828;28;660105;-68
2023/10/19 13:18:19;;;;;;;37.77;16.00;;;11.20;99.90;;;;;;4311207;28;658559;-68
2023/10/19 13:21:09;;;;;;;31.67;15.27;;;11.20;99.90;;;;;;4353525;28;658320;-68
2023/10/19 13:23:56;;;;;;;35.90;18.73;;;11.30;99.90;;;;;;4335747;28;659003;-68
2023/10/19 13:26:46;;;;;;;28.88;14.80;;;11.30;99.90;;;;;;4335077;28;658667;-68
2023/10/19 13:29:39;;;;;;;27.63;15.03;;;11.40;99.90;;;;;;4334932;28;658592;-68
2023/10/19 13:32:31;;;;;;;27.47;15.80;;;11.40;99.90;;;;;;4334494;28;658850;-68
2023/10/19 13:35:18;;;;;;;31.57;16.37;;;11.30;99.90;;;;;;4312648;28;659277;-68
2023/10/19 13:38:06;;;;;;;34.23;17.03;;;11.30;99.90;;;;;;4370298;28;659157;-68
2023/10/19 13:40:53;;;;;;;32.67;18.87;;;11.30;99.90;;;;;;4352418;28;658945;-68
2023/10/19 13:43:42;;;;;;;39.47;18.07;;;11.20;99.90;;;;;;4371295;28;658538;-68
2023/10/19 13:46:30;;;;;;;33.90;17.80;;;11.30;99.90;;;;;;4351137;28;659886;-68
2023/10/19 13:49:19;;;;;;;31.87;17.37;;;11.40;99.90;;;;;;4358556;28;659006;-68
2023/10/19 13:52:08;;;;;;;32.20;16.73;;;11.40;99.90;;;;;;4376299;28;658368;-68
2023/10/19 13:54:56;;;;;;;29.90;15.87;;;11.40;99.90;;;;;;4349468;28;659304;-68
2023/10/19 13:57:43;;;;;;;36.03;17.00;;;11.40;99.90;;;;;;4350829;28;659351;-68
2023/10/19 14:00:35;;;;;;;43.53;17.17;;;11.40;99.90;;;;;;4370712;28;660084;-68
2023/10/19 14:03:22;;;;;;;35.07;17.23;;;11.30;99.90;;;;;;4359972;28;658485;-68
2023/10/19 14:06:14;;;;;;;36.67;17.97;;;11.30;99.90;;;;;;4371103;28;659470;-68
2023/10/19 14:09:01;;;;;;;35.47;17.70;;;11.30;99.90;;;;;;4350618;28;658897;-68
2023/10/19 14:11:49;;;;;;;36.77;17.93;;;11.10;99.90;;;;;;4355204;28;658617;-69
2023/10/19 14:14:36;;;;;;;35.47;17.27;;;11.10;99.90;;;;;;4363829;28;661927;-68
2023/10/19 14:17:23;;;;;;;42.37;19.07;;;11.00;99.90;;;;;;4349774;28;658326;-68
2023/10/19 14:20:13;;;;;;;39.83;20.17;;;11.00;99.90;;;;;;4375745;28;659244;-68
2023/10/19 14:23:04;;;;;;;43.53;21.50;;;11.00;99.90;;;;;;4352245;28;660429;-68